• Join FlightAware (Why Join?)
  • Login
  • US Flag 
01:44PM EDT


 

Airport Tracker/Info


-or-


 

Live Flight TrackerFlight Track Log ✈ SWA303 ✈ 19-Apr-2013 ✈ KDEN - KIAD

Flight Track Log - Related Links

Times and Time Zones

All times are in EDT time to prevent confusion due to time zone crossing. See the SWA303 flight status page for this flight to view local times or setup timezone preferences in your user account.

Time Position Orientation Groundspeed Altitude Reporting Facility
EDT Latitude Longitude Course Direction KTS MPH feet Rate Location/Type
02:32PM 39.9167 -104.6667 57° Northeast 187 215 7,000  Level Denver TRACON
02:33PM 39.9500 -104.6000 57° Northeast 240 276 8,700 1,860 Climbing Denver TRACON
02:34PM 39.9500 -104.5000 90° East 283 326 11,000 1,980 Climbing Denver TRACON
02:36PM 39.9422 -104.3458 94° East 329 379 13,600 2,220 Climbing Denver Center
02:37PM 39.9128 -104.2025 105° East 382 440 16,400 2,340 Climbing Denver Center
02:38PM 39.8925 -104.0608 101° East 404 465 18,500 2,340 Climbing Denver Center
02:39PM 39.8728 -103.8989 99° East 421 484 21,300 2,160 Climbing Denver Center
02:40PM 39.8819 -103.7439 86° East 430 495 23,400 1,920 Climbing Denver Center
02:41PM 39.9072 -103.5225 81° East 445 512 26,100 1,920 Climbing Denver Center
02:42PM 39.9269 -103.3547 81° East 462 532 27,800 1,620 Climbing Denver Center
02:43PM 39.9481 -103.1833 81° East 474 545 29,500 1,500 Climbing Denver Center
02:44PM 39.9650 -103.0078 83° East 482 555 31,000 1,620 Climbing Denver Center
02:45PM 39.9847 -102.8328 82° East 483 556 32,900 1,740 Climbing Denver Center
02:46PM 40.0044 -102.6417 82° East 481 554 34,600 1,380 Climbing Denver Center
02:47PM 40.0247 -102.4494 82° East 481 554 35,800 1,140 Climbing Denver Center
02:48PM 40.0419 -102.2831 82° East 484 557 37,000 540 Climbing Denver Center
02:49PM 40.0586 -102.1169 82° East 484 557 37,000  Level Denver Center
02:51PM 40.0792 -101.9253 82° East 481 554 37,000  Level Denver Center
02:52PM 40.0947 -101.7586 83° East 483 556 37,000  Level Denver Center
02:53PM 40.1136 -101.5656 83° East 482 555 37,000  Level Denver Center
02:54PM 40.1297 -101.4006 83° East 481 554 37,000  Level Denver Center
02:55PM 40.1481 -101.2036 83° East 488 562 37,000  Level Denver Center
02:56PM 40.1683 -100.9833 83° East 481 554 37,000  Level Denver Center
02:57PM 40.1831 -100.8164 83° East 484 557 37,000  Level Denver Center
02:58PM 40.2003 -100.6219 83° East 486 559 37,000  Level Denver Center
02:59PM 40.2061 -100.4547 87° East 487 560 37,000  Level Denver Center
03:00PM 40.2081 -100.3142 89° East 488 562 37,000  Level Denver Center
03:01PM 40.2117 -100.0897 89° East 485 558 37,000  Level Denver Center
03:02PM 40.2150 -99.8950 89° East 482 555 37,000  Level Denver Center
03:03PM 40.2156 -99.7428 90° East 481 554 37,000  Level Denver Center
03:04PM 40.2181 -99.5344 89° East 479 551 37,000  Level Denver Center
03:05PM 40.2194 -99.3575 89° East 486 559 37,000  Level Denver Center
03:06PM 40.2203 -99.1814 90° East 487 560 37,000  Level Denver Center
03:07PM 40.2222 -99.0017 89° East 494 568 37,000  Level Denver Center
03:08PM 40.2225 -98.8233 90° East 494 568 37,000  Level Denver Center
03:09PM 40.2231 -98.7150 90° East 497 572 37,000  Level Minneapolis Center
03:10PM 40.2236 -98.4953 90° East 503 579 37,000  Level Minneapolis Center
03:11PM 40.2219 -98.3103 91° East 508 585 37,000  Level Minneapolis Center
03:12PM 40.2219 -98.1267 90° East 508 585 37,000  Level Minneapolis Center
03:13PM 40.2214 -97.9447 90° East 504 580 37,000  Level Minneapolis Center
03:14PM 40.2200 -97.7636 91° East 502 578 37,000  Level Minneapolis Center
03:15PM 40.2189 -97.5817 90° East 500 575 37,000  Level Minneapolis Center
03:16PM 40.2178 -97.3994 90° East 502 578 37,000  Level Minneapolis Center
03:17PM 40.2150 -97.1969 91° East 505 581 37,000  Level Minneapolis Center
03:18PM 40.2139 -97.0144 90° East 505 581 37,000  Level Minneapolis Center
03:19PM 40.2114 -96.8317 91° East 505 581 37,000  Level Minneapolis Center
03:20PM 40.2075 -96.6136 91° East 503 579 37,000  Level Minneapolis Center
03:21PM 40.2036 -96.4317 92° East 503 579 37,000  Level Minneapolis Center
03:22PM 40.2011 -96.2531 91° East 497 572 37,000  Level Minneapolis Center
03:23PM 40.1986 -96.0711 91° East 501 577 37,000  Level Minneapolis Center
03:24PM 40.1986 -95.8897 90° East 501 577 37,000  Level Minneapolis Center
03:25PM 40.1981 -95.7064 90° East 505 581 37,000  Level Minneapolis Center
03:26PM 40.1983 -95.5239 90° East 504 580 37,000  Level Minneapolis Center
03:27PM 40.1953 -95.3033 91° East 506 582 37,000  Level Minneapolis Center
03:28PM 40.1936 -95.1194 91° East 508 585 37,000  Level Minneapolis Center
03:30PM 40.1911 -94.9336 91° East 510 587 37,000  Level Minneapolis Center
03:31PM 40.1881 -94.7500 91° East 508 585 37,000  Level Minneapolis Center
03:32PM 40.1861 -94.5656 91° East 509 586 37,000  Level Minneapolis Center
03:33PM 40.1831 -94.3742 91° East 507 583 37,000  Level Minneapolis Center
03:34PM 40.1794 -94.1914 91° East 506 582 37,000  Level Minneapolis Center
03:35PM 40.1756 -94.0092 92° East 506 582 37,000  Level Minneapolis Center
03:36PM 40.1669 -93.7867 93° East 511 588 37,000  Level Kansas City Center
03:37PM 40.1611 -93.5664 92° East 510 587 37,000  Level Kansas City Center
03:38PM 40.1569 -93.3819 92° East 511 588 37,000  Level Kansas City Center
03:39PM 40.1525 -93.2003 92° East 508 585 37,000  Level Kansas City Center
03:40PM 40.1478 -93.0097 92° East 506 582 37,000  Level Kansas City Center
03:41PM 40.1408 -92.8033 92° East 508 585 37,000  Level Kansas City Center
03:42PM 40.1339 -92.6283 93° East 505 581 37,000  Level Kansas City Center
03:43PM 40.1231 -92.4553 95° East 499 574 37,000  Level Kansas City Center
03:44PM 40.1061 -92.2681 97° East 503 579 37,000  Level Kansas City Center
03:45PM 40.0894 -92.0900 97° East 502 578 37,000  Level Kansas City Center
03:46PM 40.0689 -91.8781 97° East 497 572 37,000  Level Kansas City Center
03:47PM 40.0519 -91.7025 97° East 493 567 37,000  Level Kansas City Center
03:48PM 40.0339 -91.5281 98° East 491 565 37,000  Level Kansas City Center
03:49PM 40.0175 -91.3519 97° East 492 566 37,000 180 Level Kansas City Center
03:50PM 40.0000 -91.1703 97° East 504 580 37,400 480 Climbing Kansas City Center
03:51PM 39.9800 -90.9664 97° East 507 583 38,100 780 Climbing Kansas City Center
03:52PM 39.9606 -90.7833 98° East 511 588 39,000 420 Climbing Kansas City Center
03:53PM 39.9408 -90.6033 98° East 508 585 39,000  Level Kansas City Center
03:54PM 39.9186 -90.3869 98° East 505 581 39,000  Level Kansas City Center
03:55PM 39.8978 -90.2086 99° East 503 579 39,000  Level Kansas City Center
03:57PM 39.8789 -90.0289 98° East 504 580 39,000  Level Kansas City Center
03:58PM 39.8592 -89.8514 98° East 503 579 39,000  Level Kansas City Center
03:59PM 39.8403 -89.6744 98° East 499 574 39,000  Level Kansas City Center
04:00PM 39.8411 -89.4544 90° East 506 582 39,000  Level Kansas City Center
04:01PM 39.8417 -89.2733 90° East 505 581 39,000  Level Kansas City Center
04:02PM 39.8417 -89.0878 90° East 511 588 39,000  Level Kansas City Center
04:03PM 39.8422 -88.9044 90° East 511 588 39,000  Level Kansas City Center
04:04PM 39.8417 -88.7200 90° East 510 587 39,000  Level Kansas City Center
04:05PM 39.8414 -88.5361 90° East 511 588 39,000  Level Kansas City Center
04:06PM 39.8422 -88.3150 90° East 512 589 39,000  Level Kansas City Center
04:07PM 39.8419 -88.1514 90° East 509 586 39,000  Level Kansas City Center
04:08PM 39.8389 -87.9681 91° East 509 586 39,000  Level Indianapolis Center
04:09PM 39.8372 -87.7836 91° East 508 585 39,000  Level Indianapolis Center
04:10PM 39.8347 -87.5989 91° East 508 585 39,000  Level Indianapolis Center
04:11PM 39.8328 -87.4108 91° East 513 590 39,000  Level Indianapolis Center
04:12PM 39.8303 -87.2233 91° East 515 593 39,000  Level Indianapolis Center
04:13PM 39.8267 -87.0347 91° East 517 595 39,000  Level Indianapolis Center
04:14PM 39.8233 -86.8450 91° East 520 598 39,000  Level Indianapolis Center
04:15PM 39.8194 -86.6167 91° East 523 602 39,000  Level Indianapolis Center
04:16PM 39.8147 -86.4286 92° East 519 597 39,000  Level Indianapolis Center
04:17PM 39.8208 -86.2400 88° East 520 598 39,000  Level Indianapolis Center
04:18PM 39.8328 -86.0514 85° East 520 598 39,000  Level Indianapolis Center
04:19PM 39.8433 -85.8575 86° East 517 595 39,000  Level Indianapolis Center
04:20PM 39.8544 -85.6692 86° East 517 595 39,000  Level Indianapolis Center
04:21PM 39.8653 -85.4814 86° East 517 595 39,000  Level Indianapolis Center
04:22PM 39.8731 -85.2942 87° East 515 593 39,000  Level Indianapolis Center
04:23PM 39.8839 -85.1056 86° East 517 595 39,000  Level Indianapolis Center
04:24PM 39.8942 -84.8853 86° East 518 596 39,000  Level Indianapolis Center
04:25PM 39.9042 -84.6969 86° East 519 597 39,000  Level Indianapolis Center
04:26PM 39.9128 -84.5064 87° East 522 601 39,000  Level Indianapolis Center
04:27PM 39.9208 -84.3156 87° East 523 602 39,000  Level Indianapolis Center
04:28PM 39.9286 -84.1236 87° East 526 605 39,000  Level Indianapolis Center
04:29PM 39.9364 -83.9308 87° East 527 606 39,000  Level Indianapolis Center
04:30PM 39.9436 -83.7394 87° East 525 604 39,000  Level Indianapolis Center
04:31PM 39.9503 -83.5458 87° East 522 601 39,000  Level Indianapolis Center
04:33PM 39.9581 -83.3472 87° East 526 605 39,000  Level Indianapolis Center
04:34PM 39.9644 -83.1519 87° East 530 610 39,000  Level Indianapolis Center
04:35PM 39.9683 -82.9592 88° East 527 606 39,000  Level Indianapolis Center
04:36PM 39.9742 -82.7692 88° East 522 601 39,000  Level Indianapolis Center
04:37PM 39.9814 -82.5450 88° East 524 603 39,000  Level Indianapolis Center
04:38PM 39.9861 -82.3556 88° East 520 598 39,000  Level Indianapolis Center
04:39PM 39.9900 -82.1664 88° East 519 597 39,000  Level Indianapolis Center
04:40PM 39.9956 -81.9781 88° East 516 594 39,000  Level Indianapolis Center
04:41PM 39.9994 -81.7900 88° East 515 593 39,000  Level Indianapolis Center
04:42PM 39.9958 -81.5839 91° East 511 588 39,000  Level Indianapolis Center
04:43PM 39.9617 -81.4336 106° East 480 552 39,000  Level Indianapolis Center
04:44PM 39.9231 -81.2719 107° East 476 548 39,000  Level Indianapolis Center
04:45PM 39.8769 -81.0736 107° East 476 548 39,000  Level Indianapolis Center
04:45PM 39.8661 -81.0186 104° East 472 543 39,000  Level Cleveland Center
04:46PM 39.8311 -80.8697 107° East 479 551 39,000 -300 Level Cleveland Center
04:47PM 39.7919 -80.7100 108° East 474 545 38,500 -900 Descending Cleveland Center
04:48PM 39.7544 -80.5589 108° East 460 529 37,300 -1,500 Descending Cleveland Center
04:49PM 39.7189 -80.4050 107° East 447 514 35,600 -1,200 Descending Cleveland Center
04:51PM 39.6503 -80.1394 108° East 436 502 33,900 -960 Descending Indianapolis Center
04:52PM 39.6147 -79.9906 107° East 433 498 33,000 -1,260 Descending Washington Center
04:53PM 39.5747 -79.8294 108° East 446 513 31,500 -1,980 Descending Washington Center
04:54PM 39.5361 -79.6736 108° East 451 519 29,100 -2,280 Descending Washington Center
04:55PM 39.4994 -79.5236 108° East 451 519 27,000 -1,080 Descending Washington Center
04:56PM 39.4731 -79.3744 103° East 446 513 27,000 -900 Level Washington Center
04:57PM 39.4408 -79.2033 104° East 440 506 25,200 -2,220 Descending Washington Center
04:58PM 39.4119 -79.0514 104° East 440 506 22,600 -2,400 Descending Washington Center
04:59PM 39.3850 -78.8997 103° East 435 501 20,400 -2,340 Descending Washington Center
05:00PM 39.3575 -78.7536 104° East 430 495 18,000 -2,220 Descending Washington Center
05:01PM 39.3339 -78.6183 103° East 423 487 16,000 -2,100 Descending Washington Center
05:02PM 39.3081 -78.4831 104° East 395 455 13,900 -2,100 Descending Washington Center
05:03PM 39.2778 -78.3506 106° East 383 441 11,900 -1,500 Descending Washington Center
05:04PM 39.2258 -78.2494 124° Southeast 358 412 10,900 -1,020 Descending Washington Center
05:05PM 39.1758 -78.1567 125° Southeast 338 389 9,900 -1,200 Descending Washington Center
05:06PM 39.1297 -78.0694 124° Southeast 310 357 8,500 -1,380 Descending Washington Center
05:07PM 39.0856 -77.9878 125° Southeast 290 334 7,200 -1,260 Descending Washington Center
05:08PM 39.0433 -77.9061 124° Southeast 285 328 6,000 -600 Descending Washington Center
05:09PM 39.0011 -77.8272 125° Southeast 274 315 6,000  Level Washington Center
05:10PM 38.9650 -77.7433 119° Southeast 264 304 6,000  Level Washington Center
05:12PM 39.0333 -77.5667 63° Northeast 299 344 6,000 -240 Level Potomac TRACON
05:13PM 39.1000 -77.5667 360° North 259 298 5,400 -900 Descending Potomac TRACON
05:14PM 39.1667 -77.5667 360° North 255 293 4,200 -1,020 Descending Potomac TRACON
05:15PM 39.2167 -77.4833 52° Northeast 232 267 3,300 -600 Descending Potomac TRACON
05:16PM 39.1833 -77.4667 159° South 163 188 3,000 -420 Descending Potomac TRACON
05:17PM 39.1500 -77.4667 180° South 141 162 2,500 -240 Descending Potomac TRACON
05:18PM 39.1000 -77.4667 180° South 141 162 2,500 -300 Level Potomac TRACON
05:19PM 39.0500 -77.4667 180° South 146 168 1,900 -660 Descending Potomac TRACON
05:20PM 39.0167 -77.4667 180° South 124 143 1,300 -720 Descending Potomac TRACON
05:21PM 38.9833 -77.4667 180° South 132 152 600 -720 Descending Potomac TRACON